createdAt,value
2018-05-04T01:17:46.659Z,45.00
2018-05-04T01:20:12.966Z,44.80
2018-05-04T01:22:39.255Z,44.80
2018-05-04T01:25:05.452Z,45.10
2018-05-04T01:27:31.711Z,45.30
2018-05-04T01:30:18.163Z,44.80
2018-05-04T01:32:58.247Z,45.10
2018-05-04T01:35:24.592Z,44.90
2018-05-04T01:37:52.610Z,44.80
2018-05-04T01:40:24.179Z,44.60
2018-05-04T01:42:51.192Z,45.10
2018-05-04T01:45:17.519Z,45.10
2018-05-04T01:47:43.871Z,44.40
2018-05-04T01:52:47.405Z,44.60
2018-05-04T01:55:13.761Z,45.10
2018-05-04T01:57:41.659Z,45.10
2018-05-04T02:00:07.964Z,45.00
2018-05-04T07:07:25.346Z,44.80
2018-05-04T07:09:51.495Z,45.00
2018-05-04T07:12:17.598Z,44.90
2018-05-04T07:14:43.712Z,44.90
2018-05-04T07:17:09.995Z,45.00
2018-05-04T07:19:36.119Z,45.00
2018-05-04T07:22:02.403Z,45.20
2018-05-04T07:24:29.190Z,44.60
2018-05-04T07:26:57.815Z,44.60
2018-05-04T07:29:23.918Z,44.60
2018-05-04T07:31:50.083Z,44.70
2018-05-04T07:34:17.111Z,44.60
2018-05-04T07:36:43.279Z,44.50
2018-05-04T07:39:09.437Z,44.50
2018-05-04T07:41:36.227Z,44.40
2018-05-04T07:44:02.390Z,44.10
2018-05-04T07:46:28.679Z,44.00
2018-05-04T07:48:54.802Z,43.80
2018-05-04T07:51:20.940Z,43.90
2018-05-04T07:53:53.782Z,43.90
2018-05-04T07:59:25.581Z,43.70
2018-05-04T08:01:51.760Z,43.90
2018-05-04T08:04:17.890Z,44.00
2018-05-04T08:06:47.171Z,43.60
2018-05-04T08:21:09.177Z,42.70
2018-05-04T08:23:35.334Z,42.90
2018-05-04T08:26:01.468Z,43.50
2018-05-04T08:28:27.647Z,43.80
2018-05-04T08:31:02.351Z,43.10
2018-05-04T08:33:28.999Z,43.50
2018-05-04T08:35:59.494Z,43.00
2018-05-04T08:38:25.726Z,42.40
2018-05-04T08:40:52.809Z,42.70
2018-05-04T08:43:18.948Z,42.60
2018-05-04T08:45:45.089Z,43.00
2018-05-04T08:48:12.005Z,43.20
2018-05-04T08:50:38.855Z,42.30
2018-05-04T08:53:05.014Z,42.30
2018-05-04T08:55:31.212Z,43.10
2018-05-04T09:00:34.582Z,41.60
2018-05-04T09:03:02.131Z,41.50
2018-05-04T09:05:28.442Z,42.10
2018-05-04T09:07:54.556Z,42.30
2018-05-04T09:10:20.813Z,41.90
2018-05-04T09:12:47.659Z,41.90
2018-05-04T09:15:13.789Z,41.90
2018-05-04T09:17:45.387Z,42.50
2018-05-04T09:20:14.747Z,42.10
2018-05-04T09:22:43.473Z,42.80
2018-05-04T09:25:15.000Z,42.90
2018-05-04T09:27:46.474Z,42.50
2018-05-04T09:30:13.543Z,42.30
2018-05-04T09:32:39.710Z,42.70
2018-05-04T09:35:07.110Z,41.60
2018-05-04T09:37:34.680Z,41.90
2018-05-04T09:40:03.481Z,41.90
2018-05-04T09:42:31.616Z,41.90
2018-05-04T09:44:57.808Z,42.00
2018-05-04T09:47:28.403Z,42.10
2018-05-04T09:49:59.626Z,42.20
2018-05-04T09:52:25.847Z,42.10
2018-05-04T09:54:52.087Z,42.40
2018-05-04T09:57:22.141Z,41.10
2018-05-04T09:59:48.575Z,41.40
2018-05-04T10:02:16.306Z,41.30
2018-05-04T10:04:42.530Z,41.60
2018-05-04T10:07:09.255Z,41.80
2018-05-04T10:09:36.633Z,41.80
2018-05-04T10:12:05.492Z,41.80
2018-05-04T10:14:37.040Z,41.80
2018-05-04T10:17:03.265Z,41.80
2018-05-04T10:19:34.891Z,42.00
2018-05-04T10:22:02.089Z,41.30
2018-05-04T10:27:00.494Z,41.70
2018-05-04T10:29:27.181Z,41.50
2018-05-04T10:31:56.237Z,41.70
2018-05-04T10:34:34.764Z,41.80
2018-05-04T10:37:01.630Z,41.00
2018-05-04T10:39:29.377Z,40.80
2018-05-04T10:41:55.555Z,40.00
2018-05-04T10:44:22.892Z,40.20
2018-05-04T10:46:52.548Z,41.10
2018-05-04T10:49:30.009Z,41.10
2018-05-04T10:51:57.264Z,41.10
2018-05-04T10:54:23.499Z,41.20
2018-05-04T10:56:50.313Z,40.60
2018-05-04T10:59:18.453Z,40.80
2018-05-04T11:01:44.901Z,40.80
2018-05-04T11:04:18.274Z,41.10
2018-05-04T11:06:45.030Z,41.10
2018-05-04T11:09:12.553Z,42.20
2018-05-04T11:11:38.864Z,41.40
2018-05-04T11:14:05.864Z,40.50
2018-05-04T11:16:32.505Z,40.90
2018-05-04T11:19:07.097Z,40.80
2018-05-04T11:21:35.583Z,40.20
2018-05-04T11:24:04.796Z,40.10
2018-05-04T11:26:31.541Z,40.20
2018-05-04T11:28:58.136Z,40.40
2018-05-04T11:31:32.098Z,40.40
2018-05-04T11:33:59.985Z,40.00
2018-05-04T11:36:29.472Z,40.60
2018-05-04T11:38:55.714Z,40.10
2018-05-04T11:41:24.152Z,40.30
2018-05-04T11:43:55.262Z,40.10
2018-05-04T11:46:22.538Z,40.30
2018-05-04T11:48:49.364Z,40.50
2018-05-04T11:51:19.760Z,40.10
2018-05-04T11:53:46.959Z,39.90
2018-05-04T11:56:18.367Z,39.00
2018-05-04T11:58:45.625Z,39.10
2018-05-04T12:01:12.736Z,39.50
2018-05-04T12:03:40.471Z,39.50
2018-05-04T12:06:07.131Z,38.90
2018-05-04T12:08:33.450Z,38.70
2018-05-04T12:11:00.254Z,38.70
2018-05-04T12:13:26.975Z,39.10
2018-05-04T12:15:59.797Z,38.20
2018-05-04T12:18:26.636Z,38.70
2018-05-04T12:20:58.089Z,38.80
2018-05-04T12:23:30.150Z,39.20
2018-05-04T12:25:57.482Z,39.00
2018-05-04T12:28:23.713Z,38.40
2018-05-04T12:33:21.657Z,37.80
2018-05-04T12:35:48.073Z,38.60
2018-05-04T12:38:15.099Z,38.40
2018-05-04T12:40:45.259Z,38.40
2018-05-04T12:43:15.277Z,38.30
2018-05-04T12:45:41.804Z,38.20
2018-05-04T12:48:09.785Z,38.00
2018-05-04T12:50:42.379Z,38.40
2018-05-04T12:53:11.585Z,38.40
2018-05-04T12:55:38.627Z,38.70
2018-05-04T12:58:05.750Z,38.80
2018-05-04T13:00:33.309Z,38.60
2018-05-04T13:03:00.283Z,37.90
2018-05-04T13:05:27.629Z,38.20
2018-05-04T13:07:54.145Z,37.80
2018-05-04T13:10:25.185Z,38.20
2018-05-04T13:12:52.160Z,38.10
2018-05-04T13:15:22.706Z,38.00
2018-05-04T13:17:49.835Z,37.90
2018-05-04T13:20:16.712Z,37.40
2018-05-04T13:22:43.778Z,37.40
2018-05-04T13:25:10.903Z,37.00
2018-05-04T13:27:40.303Z,37.30
2018-05-04T13:30:06.523Z,37.60
2018-05-04T13:32:33.188Z,37.60
2018-05-04T13:34:59.428Z,37.10
2018-05-04T13:37:25.674Z,37.30
2018-05-04T13:39:52.727Z,36.20
2018-05-04T13:42:19.385Z,36.20
2018-05-04T13:44:46.439Z,35.90
2018-05-04T13:47:13.564Z,36.10
2018-05-04T13:49:45.141Z,36.00
2018-05-04T13:52:11.751Z,36.50
2018-05-04T13:54:38.876Z,36.00
2018-05-04T13:57:10.166Z,36.00
2018-05-04T13:59:36.655Z,36.10
2018-05-04T14:02:04.272Z,36.00
2018-05-04T14:04:31.126Z,36.20
2018-05-04T14:09:43.390Z,35.70
2018-05-04T14:12:10.753Z,35.40
2018-05-04T14:14:39.384Z,35.00
2018-05-04T14:17:06.691Z,35.10
2018-05-04T14:19:37.843Z,35.70
2018-05-04T14:22:08.416Z,35.20
2018-05-04T14:24:39.442Z,35.60
2018-05-04T14:27:07.724Z,35.20
2018-05-04T14:29:38.196Z,35.00
2018-05-04T14:32:09.058Z,35.00
2018-05-04T14:34:36.299Z,34.90
2018-05-04T14:37:02.734Z,34.80
2018-05-04T14:39:29.911Z,35.00
2018-05-04T14:41:56.244Z,35.10
2018-05-04T14:44:23.708Z,34.30
2018-05-04T14:46:50.277Z,34.70
2018-05-04T14:49:16.643Z,34.80
2018-05-04T14:51:45.934Z,34.10
2018-05-04T14:54:12.985Z,34.20
2018-05-04T14:56:46.952Z,34.50
2018-05-04T14:59:14.080Z,33.90
2018-05-04T15:01:40.443Z,34.20
2018-05-04T15:04:06.904Z,34.10
2018-05-04T15:06:33.715Z,34.40
2018-05-04T15:09:07.128Z,34.40
2018-05-04T15:11:33.617Z,34.40
2018-05-04T15:14:00.781Z,34.20
2018-05-04T15:16:27.653Z,34.40
2018-05-04T15:18:53.965Z,34.30
2018-05-04T15:21:23.087Z,34.40
2018-05-04T15:23:53.799Z,34.30
2018-05-04T15:26:21.023Z,34.20
2018-05-04T15:28:52.854Z,34.10
2018-05-04T15:31:20.017Z,33.90
2018-05-04T15:33:46.362Z,33.90
2018-05-04T15:36:13.652Z,33.70
2018-05-04T15:38:40.631Z,33.90
2018-05-04T15:41:10.580Z,33.70
2018-05-04T15:43:36.821Z,33.70
2018-05-04T15:46:04.737Z,33.90
2018-05-04T15:48:37.015Z,33.80
2018-05-04T15:51:10.026Z,33.60
2018-05-04T18:57:59.618Z,41.80
2018-05-04T19:03:17.597Z,41.80
2018-05-04T19:05:43.962Z,42.10
2018-05-04T19:08:19.352Z,42.20
2018-05-04T19:10:45.714Z,42.40
2018-05-04T19:13:16.989Z,42.60
2018-05-04T19:18:22.482Z,42.40
2018-05-04T19:23:30.632Z,42.50
2018-05-04T19:25:56.985Z,42.50
2018-05-04T19:28:23.278Z,42.50
2018-05-04T19:30:49.669Z,42.80
2018-05-04T19:36:20.432Z,43.00
2018-05-04T19:38:56.594Z,42.80
2018-05-04T19:41:25.507Z,43.00
2018-05-04T19:43:53.945Z,43.00
2018-05-04T19:51:53.804Z,43.20
2018-05-04T19:57:00.640Z,43.10
2018-05-04T19:59:26.866Z,42.80
2018-05-04T20:01:54.061Z,42.80
2018-05-04T20:04:21.059Z,43.60
2018-05-04T20:06:47.630Z,42.90
2018-05-04T20:09:13.791Z,43.10
2018-05-04T20:11:39.982Z,43.20
2018-05-04T20:14:08.351Z,42.80
2018-05-04T20:16:34.820Z,42.80
2018-05-04T20:19:01.770Z,42.70
2018-05-04T20:21:29.187Z,42.70
2018-05-04T20:23:55.557Z,43.00
2018-05-04T20:26:21.901Z,43.00
2018-05-04T20:28:48.188Z,43.40
2018-05-04T20:31:14.368Z,43.30
2018-05-04T20:33:40.816Z,43.20
2018-05-04T20:36:07.827Z,43.40
2018-05-04T20:38:34.008Z,43.30
2018-05-04T20:41:00.250Z,43.20
2018-05-04T20:43:26.626Z,43.30
2018-05-04T20:45:54.134Z,43.20
2018-05-04T20:48:20.464Z,43.20
2018-05-04T20:50:46.670Z,42.90
2018-05-04T20:53:12.836Z,42.70
2018-05-04T20:55:39.122Z,43.10
2018-05-04T20:58:05.307Z,43.30
2018-05-04T21:00:31.473Z,43.50
2018-05-04T21:02:57.772Z,43.20
2018-05-04T21:05:23.972Z,43.50
2018-05-04T21:07:50.326Z,43.70
2018-05-04T21:10:16.487Z,43.40
2018-05-04T21:12:43.131Z,43.70
2018-05-04T21:15:09.298Z,43.60
2018-05-04T21:17:38.733Z,43.60
2018-05-04T21:20:04.960Z,43.60
2018-05-04T21:22:31.210Z,43.70
2018-05-04T21:24:58.256Z,43.80
2018-05-04T21:27:38.171Z,43.80
2018-05-04T21:30:06.466Z,44.80
2018-05-04T21:32:34.525Z,43.90
2018-05-04T21:35:01.516Z,44.20
2018-05-04T21:37:27.732Z,44.20
2018-05-04T21:39:53.936Z,44.30
2018-05-04T21:42:20.195Z,44.00
2018-05-04T21:44:46.502Z,44.10
2018-05-04T21:47:12.823Z,44.10
2018-05-04T21:49:39.079Z,44.30
2018-05-04T21:52:05.400Z,44.40
2018-05-04T21:54:31.603Z,44.50
2018-05-04T21:56:57.790Z,44.40
2018-05-04T21:59:23.951Z,44.20
2018-05-04T22:01:50.105Z,44.40
2018-05-04T22:04:16.281Z,44.20
2018-05-04T22:06:42.448Z,44.40
2018-05-04T22:09:09.379Z,44.40
2018-05-04T22:11:35.640Z,44.40
2018-05-04T22:14:02.138Z,44.60
2018-05-04T22:16:28.296Z,45.00
2018-05-04T22:18:54.448Z,44.80
2018-05-04T22:21:20.632Z,44.90
2018-05-04T22:23:47.563Z,45.00
2018-05-04T22:26:14.499Z,44.50
2018-05-04T22:28:40.657Z,44.50
2018-05-04T22:31:06.955Z,44.90
2018-05-04T22:33:33.903Z,45.20
2018-05-04T22:36:00.079Z,45.00
2018-05-04T22:38:26.272Z,44.60
2018-05-04T22:40:52.518Z,45.00
2018-05-04T22:43:18.681Z,45.00
2018-05-04T22:45:44.900Z,45.20
2018-05-04T22:48:11.115Z,44.90
2018-05-04T22:50:37.653Z,44.70
2018-05-04T22:53:03.975Z,45.00
2018-05-04T22:55:30.915Z,45.20
2018-05-04T22:57:57.059Z,45.20
2018-05-04T23:00:23.338Z,45.20
2018-05-04T23:02:49.507Z,45.00
2018-05-04T23:05:15.650Z,45.30
2018-05-04T23:07:42.084Z,45.40
2018-05-04T23:10:08.416Z,45.60
2018-05-04T23:12:34.829Z,45.40
2018-05-04T23:15:01.124Z,45.70
2018-05-04T23:17:27.307Z,45.50
2018-05-04T23:19:53.434Z,45.50
2018-05-04T23:22:28.390Z,45.90
2018-05-04T23:24:55.301Z,45.90
2018-05-04T23:27:21.529Z,45.90
2018-05-04T23:29:47.752Z,45.90
2018-05-04T23:32:13.935Z,46.10
2018-05-04T23:34:40.084Z,46.70
2018-05-04T23:37:06.265Z,46.30
2018-05-04T23:39:32.427Z,46.50
2018-05-04T23:41:58.667Z,47.40
2018-05-04T23:44:24.912Z,46.80
2018-05-04T23:46:51.059Z,46.90
2018-05-04T23:49:22.645Z,47.20
2018-05-04T23:51:48.814Z,47.20
2018-05-04T23:54:14.968Z,47.10
2018-05-04T23:56:41.119Z,47.30
2018-05-04T23:59:07.364Z,47.30
